Time;durP1;ratioP1;P1;durP2;ratioP2;P2;SDS_P1;SDS_P2;PMS_P1;PMS_P2;Temp;Humidity;BMP_temperature;BMP_pressure;BME280_temperature;BME280_humidity;BME280_pressure;Samples;Min_cycle;Max_cycle;Signal;HPM_P1;HPM_P2
2021/05/01 00:00:51;;;;;;;39.03;21.77;;;;;;;14.95;63.10;100247.15;125664;1099;104404;-75
2021/05/01 00:03:19;;;;;;;40.20;22.77;;;;;;;14.92;62.32;100248.86;125647;1099;104207;-75
2021/05/01 00:05:47;;;;;;;41.37;23.77;;;;;;;14.89;62.20;100245.30;125619;1099;104392;-76
2021/05/01 00:08:15;;;;;;;42.53;22.77;;;;;;;14.89;62.89;100245.30;125709;1100;104165;-75
2021/05/01 00:10:43;;;;;;;37.80;20.55;;;;;;;14.84;63.13;100236.43;125646;1099;104248;-75
2021/05/01 00:13:11;;;;;;;36.67;22.57;;;;;;;14.76;63.31;100243.33;125627;1099;107529;-75
2021/05/01 00:15:39;;;;;;;42.57;25.17;;;;;;;14.63;62.24;100248.47;125678;1099;104169;-76
2021/05/01 00:18:07;;;;;;;41.37;25.47;;;;;;;14.48;62.76;100243.78;125628;1099;104213;-76
2021/05/01 00:20:35;;;;;;;48.65;27.60;;;;;;;14.38;63.15;100252.41;125644;1099;104172;-75
2021/05/01 00:23:03;;;;;;;42.07;23.67;;;;;;;14.36;62.84;100248.87;125611;1099;104371;-75
2021/05/01 00:25:31;;;;;;;36.90;20.60;;;;;;;14.33;63.14;100254.09;125679;1099;104181;-75
2021/05/01 00:27:59;;;;;;;36.83;19.47;;;;;;;14.31;63.06;100254.07;125679;1099;104264;-75
2021/05/01 00:30:27;;;;;;;36.73;21.03;;;;;;;14.31;62.89;100264.63;125658;1099;104217;-75
2021/05/01 00:32:55;;;;;;;35.57;19.90;;;;;;;14.31;63.01;100263.75;125622;1099;104214;-76
2021/05/01 00:35:23;;;;;;;40.67;21.87;;;;;;;14.34;63.24;100263.80;125689;1099;104223;-74
2021/05/01 00:37:51;;;;;;;39.23;21.63;;;;;;;14.34;63.06;100255.89;125657;1098;104296;-75
2021/05/01 00:40:19;;;;;;;37.80;21.25;;;;;;;14.33;63.11;100260.25;125653;1099;104159;-75
2021/05/01 00:42:47;;;;;;;39.17;22.63;;;;;;;14.33;63.31;100260.25;125567;1099;104188;-75
2021/05/01 00:45:16;;;;;;;40.80;24.23;;;;;;;14.33;63.23;100269.93;125632;1099;104169;-75
2021/05/01 00:47:44;;;;;;;36.80;20.17;;;;;;;14.31;64.08;100269.91;125659;1099;104166;-76
2021/05/01 00:50:14;;;;;;;37.90;21.13;;;;;;;14.23;63.44;100276.81;125668;1099;104650;-76
2021/05/01 00:52:43;;;;;;;35.13;21.30;;;;;;;14.13;63.54;100273.14;125521;1100;104232;-76
2021/05/01 00:55:12;;;;;;;35.07;21.37;;;;;;;14.06;63.74;100276.52;125628;1099;104235;-75
2021/05/01 00:57:42;;;;;;;35.93;20.70;;;;;;;14.02;64.19;100272.03;125632;1099;104255;-75
2021/05/01 01:00:24;;;;;;;32.37;19.03;;;;;;;13.97;64.38;100273.71;125654;1099;104171;-75
2021/05/01 01:02:52;;;;;;;35.07;18.43;;;;;;;13.90;63.62;100279.72;125643;1099;104175;-74
2021/05/01 01:05:19;;;;;;;33.43;17.70;;;;;;;13.84;63.94;100278.76;125684;1099;104162;-75
2021/05/01 01:07:47;;;;;;;36.47;18.77;;;;;;;13.76;64.29;100288.28;125636;1099;104216;-75
2021/05/01 01:10:15;;;;;;;33.77;19.00;;;;;;;13.69;64.59;100285.49;125660;1099;104179;-75
2021/05/01 01:12:43;;;;;;;37.23;19.07;;;;;;;13.60;64.29;100284.46;125519;1099;104217;-75
2021/05/01 01:15:21;;;;;;;33.73;19.70;;;;;;;13.55;63.84;100293.12;125680;1099;104175;-74
2021/05/01 01:17:49;;;;;;;34.00;18.80;;;;;;;13.47;64.31;100290.33;125670;1099;104316;-74
2021/05/01 01:20:17;;;;;;;37.13;18.80;;;;;;;13.42;64.08;100305.17;125617;1099;104224;-74
2021/05/01 01:22:45;;;;;;;31.07;17.70;;;;;;;13.33;64.26;100308.48;125624;1100;104208;-74
2021/05/01 01:25:14;;;;;;;37.00;18.50;;;;;;;13.29;64.64;100304.87;125637;1099;104230;-75
2021/05/01 01:27:44;;;;;;;34.70;18.67;;;;;;;13.33;64.76;100311.13;125642;1099;104159;-75
2021/05/01 01:30:14;;;;;;;32.53;17.97;;;;;;;13.32;64.30;100311.94;125644;1099;104174;-75
2021/05/01 01:32:43;;;;;;;33.80;17.70;;;;;;;13.36;64.93;100312.95;125594;1099;104338;-75
2021/05/01 01:35:13;;;;;;;33.57;17.23;;;;;;;13.38;64.61;100311.22;125611;1099;104175;-74
2021/05/01 01:37:45;;;;;;;32.33;17.83;;;;;;;13.40;64.47;100322.67;125042;1099;104169;-75
2021/05/01 01:40:15;;;;;;;30.93;17.70;;;;;;;13.42;64.91;100313.95;125665;1099;104648;-75
2021/05/01 01:42:44;;;;;;;33.33;17.80;;;;;;;13.44;65.09;100327.17;125623;1099;104955;-75
2021/05/01 01:45:14;;;;;;;31.50;18.00;;;;;;;13.44;65.30;100330.68;125629;1099;107027;-75
2021/05/01 01:47:43;;;;;;;36.10;18.60;;;;;;;13.45;65.08;100323.69;125673;1099;104171;-76
2021/05/01 01:50:14;;;;;;;35.33;18.80;;;;;;;13.47;65.55;100327.23;125611;1099;104201;-75
2021/05/01 01:52:42;;;;;;;33.60;18.03;;;;;;;13.50;65.59;100329.05;125649;1099;104243;-75
2021/05/01 01:55:13;;;;;;;30.93;17.27;;;;;;;13.52;65.25;100328.20;125615;1098;104299;-75
2021/05/01 01:57:41;;;;;;;31.40;17.27;;;;;;;13.53;65.24;100323.84;125700;1099;104181;-75
2021/05/01 02:00:13;;;;;;;32.73;16.57;;;;;;;13.55;65.34;100332.67;125019;1099;104169;-75
2021/05/01 02:02:41;;;;;;;30.30;16.50;;;;;;;13.50;64.79;100332.57;125655;1099;104159;-75
2021/05/01 02:05:11;;;;;;;31.10;16.83;;;;;;;13.50;64.93;100340.48;125627;1099;104178;-74
2021/05/01 02:07:40;;;;;;;33.50;16.60;;;;;;;13.51;65.56;100344.91;125687;1099;104181;-75
2021/05/01 02:10:10;;;;;;;30.20;16.43;;;;;;;13.53;65.06;100351.09;125644;1099;104344;-75
2021/05/01 02:12:39;;;;;;;31.43;17.00;;;;;;;13.55;65.16;100349.36;125665;1099;104175;-75
2021/05/01 02:15:11;;;;;;;30.20;15.87;;;;;;;13.58;65.04;100351.19;125595;1099;104182;-74
2021/05/01 02:17:42;;;;;;;29.87;15.63;;;;;;;13.57;65.92;100355.58;125666;1099;104280;-74
2021/05/01 02:20:13;;;;;;;34.07;17.13;;;;;;;13.58;65.52;100359.09;125661;1099;104221;-74
2021/05/01 02:22:42;;;;;;;32.93;16.40;;;;;;;13.60;65.21;100360.92;125663;1099;104166;-75
2021/05/01 02:25:11;;;;;;;30.67;15.87;;;;;;;13.62;65.58;100360.95;125645;1099;104200;-75
2021/05/01 02:27:39;;;;;;;30.70;17.40;;;;;;;13.59;65.05;100372.31;125676;1099;104653;-75
2021/05/01 02:30:11;;;;;;;33.90;18.97;;;;;;;13.54;65.94;100366.06;125688;1099;104227;-75
2021/05/01 02:32:40;;;;;;;30.03;17.77;;;;;;;13.52;65.56;100365.11;125634;1099;104171;-75
2021/05/01 02:35:12;;;;;;;31.73;17.60;;;;;;;13.50;65.28;100371.23;125473;1099;104297;-75
2021/05/01 02:37:41;;;;;;;34.10;18.00;;;;;;;13.47;65.63;100367.65;125614;1099;104169;-75
2021/05/01 02:40:12;;;;;;;34.57;17.77;;;;;;;13.45;65.84;100371.12;125575;1099;104181;-75
2021/05/01 02:42:44;;;;;;;33.63;17.17;;;;;;;13.40;66.10;100370.12;125659;1099;104220;-75
2021/05/01 02:45:14;;;;;;;28.93;16.23;;;;;;;13.33;65.98;100362.91;125684;1099;104300;-75
2021/05/01 02:47:43;;;;;;;32.77;16.90;;;;;;;13.24;65.75;100361.83;125663;1099;104194;-74
2021/05/01 02:50:13;;;;;;;35.47;16.30;;;;;;;13.15;66.08;100366.01;125584;1099;104235;-75
2021/05/01 02:52:42;;;;;;;31.07;17.37;;;;;;;13.13;65.96;100369.52;125668;1099;104171;-75
2021/05/01 02:55:11;;;;;;;30.30;16.37;;;;;;;13.18;65.93;100377.50;125645;1099;104194;-75
2021/05/01 02:57:40;;;;;;;29.03;15.97;;;;;;;13.22;66.29;100379.36;125662;1098;103566;-75
2021/05/01 03:00:10;;;;;;;31.07;15.63;;;;;;;13.23;66.08;100381.16;125629;1099;104169;-75
2021/05/01 03:02:38;;;;;;;38.80;17.35;;;;;;;13.21;65.90;100385.47;125672;1099;105678;-75
2021/05/01 03:05:08;;;;;;;30.30;16.70;;;;;;;13.19;65.87;100383.68;125608;1099;104300;-74
2021/05/01 03:07:36;;;;;;;33.17;17.37;;;;;;;13.18;66.08;100377.50;125650;1099;104182;-75
2021/05/01 03:10:06;;;;;;;29.83;15.60;;;;;;;13.22;66.49;100379.36;125648;1099;104168;-75
2021/05/01 03:12:34;;;;;;;33.53;16.10;;;;;;;13.28;65.96;100370.72;125643;1099;104242;-75
2021/05/01 03:15:04;;;;;;;28.80;15.93;;;;;;;13.27;66.14;100375.08;125526;1099;104169;-75
2021/05/01 03:17:32;;;;;;;27.53;15.20;;;;;;;13.24;66.03;100369.73;125642;1099;104442;-75
2021/05/01 03:20:00;;;;;;;27.47;15.37;;;;;;;13.20;66.39;100374.90;125665;1099;104168;-75
2021/05/01 03:22:28;;;;;;;30.37;16.53;;;;;;;13.18;66.10;100376.62;125680;1099;104168;-75
2021/05/01 03:24:56;;;;;;;30.63;15.60;;;;;;;13.19;65.95;100376.66;125584;1099;105597;-75
2021/05/01 03:27:24;;;;;;;30.50;15.83;;;;;;;13.19;66.53;100384.56;125632;1099;104207;-75
2021/05/01 03:29:52;;;;;;;39.20;17.00;;;;;;;13.19;66.05;100381.92;125648;1099;102462;-75
2021/05/01 03:32:20;;;;;;;31.40;16.10;;;;;;;13.26;66.25;100385.58;125683;1099;104248;-75
2021/05/01 03:34:47;;;;;;;30.27;16.20;;;;;;;13.37;66.42;100385.86;125661;1098;104165;-75
2021/05/01 03:37:15;;;;;;;28.47;16.27;;;;;;;13.51;66.30;100381.81;125588;1099;104175;-75
2021/05/01 03:39:43;;;;;;;27.60;14.90;;;;;;;13.59;66.24;100379.34;125669;1098;104241;-75
2021/05/01 03:42:11;;;;;;;29.17;15.47;;;;;;;13.62;66.51;100385.55;125613;1099;104175;-75
2021/05/01 03:44:39;;;;;;;28.37;15.77;;;;;;;13.70;66.10;100380.45;125643;1099;104178;-75
2021/05/01 03:47:07;;;;;;;25.70;14.03;;;;;;;13.79;66.62;100390.28;125541;1099;104169;-75
2021/05/01 03:49:35;;;;;;;28.60;14.87;;;;;;;13.79;66.39;100392.91;125641;1099;104242;-75
2021/05/01 03:52:03;;;;;;;29.33;15.10;;;;;;;13.78;66.44;100393.80;125662;1099;104165;-75
2021/05/01 03:54:32;;;;;;;27.60;14.43;;;;;;;13.79;65.99;100401.73;125655;1098;104188;-74
2021/05/01 03:57:00;;;;;;;27.43;14.53;;;;;;;13.82;66.59;100398.25;125671;1099;104169;-75
2021/05/01 03:59:28;;;;;;;28.50;14.85;;;;;;;13.80;66.78;100397.34;125647;1099;104178;-75
2021/05/01 04:01:56;;;;;;;32.10;16.00;;;;;;;13.72;65.93;100394.55;125558;1099;104643;-75
2021/05/01 04:04:24;;;;;;;32.73;17.20;;;;;;;13.61;65.87;100390.80;125623;1099;104175;-75
2021/05/01 04:06:52;;;;;;;35.60;18.50;;;;;;;13.55;66.76;100398.57;125558;1099;104230;-75
2021/05/01 04:09:20;;;;;;;29.63;16.63;;;;;;;13.53;66.45;100405.56;125701;1099;104226;-75
2021/05/01 04:11:48;;;;;;;29.13;16.47;;;;;;;13.53;66.44;100406.45;125624;1099;104165;-74
2021/05/01 04:14:16;;;;;;;32.90;16.93;;;;;;;13.56;66.07;100405.63;124974;1099;104149;-75
2021/05/01 04:16:44;;;;;;;31.07;15.83;;;;;;;13.63;66.26;100405.80;125574;1099;104169;-75
2021/05/01 04:19:12;;;;;;;28.53;15.47;;;;;;;13.75;66.60;100412.19;125628;1099;104169;-75
2021/05/01 04:21:40;;;;;;;26.70;15.30;;;;;;;13.84;67.31;100415.02;125607;1099;104175;-75
2021/05/01 04:24:09;;;;;;;28.70;15.97;;;;;;;13.90;66.84;100415.16;125670;1099;104336;-74
2021/05/01 04:26:37;;;;;;;26.63;14.10;;;;;;;13.96;66.26;100417.92;125627;1099;104181;-75
2021/05/01 04:29:05;;;;;;;28.47;15.70;;;;;;;13.99;66.78;100417.98;125625;1099;104326;-74
2021/05/01 04:31:33;;;;;;;28.93;14.90;;;;;;;14.05;66.60;100421.59;125540;1099;104172;-74
2021/05/01 04:34:01;;;;;;;29.27;15.57;;;;;;;14.08;67.11;100417.26;125591;1099;104272;-76
2021/05/01 04:36:28;;;;;;;28.10;15.27;;;;;;;14.15;66.51;100419.17;125623;1099;104165;-75
2021/05/01 04:38:56;;;;;;;28.87;15.00;;;;;;;14.20;66.93;100428.05;125629;1099;104165;-75
2021/05/01 04:41:24;;;;;;;28.90;14.77;;;;;;;14.24;66.86;100414.92;125659;1099;104192;-75
2021/05/01 04:43:52;;;;;;;30.63;15.17;;;;;;;14.27;67.03;100418.50;125603;1099;104152;-75
2021/05/01 04:46:20;;;;;;;31.10;15.53;;;;;;;14.29;67.18;100422.08;125661;1099;104242;-76
2021/05/01 04:48:48;;;;;;;27.60;15.20;;;;;;;14.34;66.40;100425.69;125647;1099;104242;-74
2021/05/01 04:51:19;;;;;;;29.75;15.70;;;;;;;14.42;67.48;100422.31;125600;1099;104172;-75
2021/05/01 04:53:46;;;;;;;31.10;15.70;;;;;;;14.46;67.12;100411.84;125660;1099;104172;-75
2021/05/01 04:56:14;;;;;;;28.87;16.80;;;;;;;14.55;66.47;100424.30;125658;1099;104181;-74
2021/05/01 04:58:42;;;;;;;31.10;16.23;;;;;;;14.59;66.52;100415.59;125627;1099;104183;-74
2021/05/01 05:01:11;;;;;;;27.43;14.33;;;;;;;14.62;66.45;100426.23;125617;1099;104168;-75
2021/05/01 05:03:39;;;;;;;26.67;14.43;;;;;;;14.64;66.55;100418.34;125586;1099;104292;-76
2021/05/01 05:06:07;;;;;;;25.93;14.67;;;;;;;14.69;66.47;100417.58;125642;1099;104182;-76
2021/05/01 05:08:34;;;;;;;28.13;15.57;;;;;;;14.78;66.50;100413.30;125613;1099;104175;-75
2021/05/01 05:11:03;;;;;;;30.33;15.40;;;;;;;14.89;66.18;100409.09;125634;1099;104322;-76
2021/05/01 05:13:30;;;;;;;32.30;14.33;;;;;;;15.01;66.79;100405.77;125625;1099;104165;-75
2021/05/01 05:15:58;;;;;;;28.17;15.03;;;;;;;15.16;66.39;100408.66;125613;1099;104233;-76
2021/05/01 05:18:27;;;;;;;32.13;15.17;;;;;;;15.33;67.07;100411.52;125647;1099;104281;-75
2021/05/01 05:20:58;;;;;;;26.00;14.53;;;;;;;15.48;66.37;100399.42;125684;1099;104169;-74
2021/05/01 05:23:26;;;;;;;30.27;15.20;;;;;;;15.60;66.53;100394.30;125687;1099;104196;-75
2021/05/01 05:25:54;;;;;;;27.63;14.30;;;;;;;15.72;67.03;100398.84;125633;1099;104173;-74
2021/05/01 05:28:22;;;;;;;26.10;13.77;;;;;;;15.81;65.96;100405.16;125587;1099;104386;-75
2021/05/01 05:30:51;;;;;;;29.73;14.50;;;;;;;15.93;66.68;100395.63;125597;1099;104188;-75
2021/05/01 05:33:21;;;;;;;27.03;14.80;;;;;;;16.04;66.90;100391.34;125684;1099;104220;-76
2021/05/01 05:35:49;;;;;;;30.13;14.20;;;;;;;16.13;65.94;100386.16;125672;1099;104150;-75
2021/05/01 05:38:16;;;;;;;32.20;14.50;;;;;;;16.23;66.08;100386.26;125611;1099;104251;-75
2021/05/01 05:40:46;;;;;;;23.77;11.73;;;;;;;16.39;65.94;100397.89;125643;1099;104181;-75
2021/05/01 05:43:14;;;;;;;24.80;12.37;;;;;;;16.53;66.42;100393.61;125638;1099;104216;-75
2021/05/01 05:45:44;;;;;;;27.10;12.33;;;;;;;16.65;65.95;100396.37;125660;1099;104165;-76
2021/05/01 05:48:12;;;;;;;26.73;12.87;;;;;;;16.76;65.72;100390.30;125682;1099;104171;-75
2021/05/01 05:50:40;;;;;;;24.47;11.97;;;;;;;16.89;65.72;100394.84;125712;1099;104303;-76
2021/05/01 05:53:08;;;;;;;28.00;12.53;;;;;;;17.01;65.69;100400.24;125666;1099;104158;-76
2021/05/01 05:55:36;;;;;;;24.20;11.67;;;;;;;17.13;65.98;100402.11;125697;1098;104214;-75
2021/05/01 05:58:04;;;;;;;26.13;11.03;;;;;;;17.25;65.89;100402.20;125588;1100;104158;-75
2021/05/01 06:00:32;;;;;;;23.53;10.97;;;;;;;17.44;65.50;100410.28;125680;1099;104187;-75
2021/05/01 06:03:00;;;;;;;21.10;10.23;;;;;;;17.58;65.67;100410.36;125640;1099;104236;-76
2021/05/01 06:05:32;;;;;;;23.80;10.80;;;;;;;17.75;65.76;100416.64;125634;1098;104169;-76
2021/05/01 06:08:04;;;;;;;21.67;10.10;;;;;;;17.89;65.64;100416.73;125623;1099;104226;-74
2021/05/01 06:10:33;;;;;;;20.93;9.50;;;;;;;18.03;65.17;100416.80;125649;1099;104163;-73
2021/05/01 06:13:02;;;;;;;23.93;10.63;;;;;;;18.14;65.26;100412.41;125722;1099;104226;-73
2021/05/01 06:15:31;;;;;;;23.37;10.87;;;;;;;18.23;64.80;100411.55;125672;1099;104252;-74
2021/05/01 06:18:00;;;;;;;22.70;11.17;;;;;;;18.29;64.67;100413.32;125641;1099;104389;-74
2021/05/01 06:20:30;;;;;;;23.90;11.07;;;;;;;18.37;64.81;100411.59;125623;1099;104239;-74
2021/05/01 06:23:00;;;;;;;24.50;11.20;;;;;;;18.48;64.70;100419.56;125652;1099;104172;-74
2021/05/01 06:25:29;;;;;;;28.13;11.97;;;;;;;18.60;64.55;100410.73;125678;1099;104172;-74
2021/05/01 06:27:57;;;;;;;23.47;11.30;;;;;;;18.66;64.45;100416.06;125656;1099;104185;-73
2021/05/01 06:30:25;;;;;;;23.57;11.13;;;;;;;18.77;64.25;100401.00;125638;1099;104241;-74
2021/05/01 06:32:53;;;;;;;23.10;11.77;;;;;;;18.91;63.80;100405.48;125681;1099;104172;-73
2021/05/01 06:35:23;;;;;;;25.40;11.30;;;;;;;19.02;64.30;100404.57;125601;1099;104332;-74
2021/05/01 06:37:53;;;;;;;26.33;12.33;;;;;;;19.14;64.11;100405.47;125682;1099;105629;-73
2021/05/01 06:40:30;;;;;;;24.73;12.07;;;;;;;19.26;63.65;100397.48;125668;1099;104351;-74
2021/05/01 06:43:04;;;;;;;21.53;10.27;;;;;;;19.37;63.95;100403.66;125647;1099;104265;-74
2021/05/01 06:45:35;;;;;;;24.00;9.97;;;;;;;19.52;63.87;100407.16;125680;1099;104453;-73
2021/05/01 06:48:08;;;;;;;26.43;10.23;;;;;;;19.70;63.40;100404.45;125641;1099;104264;-73
2021/05/01 06:50:40;;;;;;;17.60;8.93;;;;;;;19.86;63.30;100413.30;125623;1099;104300;-74
2021/05/01 06:53:27;;;;;;;20.90;9.43;;;;;;;19.93;62.99;100400.87;125564;1099;104271;-74
2021/05/01 06:56:00;;;;;;;21.70;10.00;;;;;;;20.11;63.36;100408.74;125579;1099;104178;-74
2021/05/01 06:58:33;;;;;;;19.37;9.00;;;;;;;20.24;62.25;100404.26;125694;1099;104172;-73
2021/05/01 07:01:05;;;;;;;18.27;8.97;;;;;;;20.37;62.34;100401.52;125668;1099;104169;-74
2021/05/01 07:03:39;;;;;;;20.50;9.23;;;;;;;20.50;61.97;100407.66;125693;1099;104158;-74
2021/05/01 07:06:07;;;;;;;18.17;9.70;;;;;;;20.63;62.32;100404.89;125696;1099;104282;-74
2021/05/01 07:08:38;;;;;;;20.17;10.23;;;;;;;20.75;61.65;100411.93;125633;1099;104745;-74
2021/05/01 07:11:12;;;;;;;22.37;10.30;;;;;;;20.85;61.40;100411.86;125554;1099;104197;-74
2021/05/01 07:13:41;;;;;;;20.20;9.37;;;;;;;20.89;61.53;100410.95;125614;1099;104178;-74
2021/05/01 07:16:10;;;;;;;21.23;10.00;;;;;;;21.02;61.53;100409.97;125616;1099;104329;-74
2021/05/01 07:18:40;;;;;;;20.73;9.60;;;;;;;21.22;61.16;100412.42;125649;1099;104310;-74
2021/05/01 07:21:08;;;;;;;21.00;9.73;;;;;;;21.44;61.18;100417.55;125604;1099;104339;-74
2021/05/01 07:23:36;;;;;;;25.77;10.53;;;;;;;21.54;60.88;100416.59;125695;1098;104223;-73
2021/05/01 07:26:06;;;;;;;24.17;10.80;;;;;;;21.71;60.74;100422.63;125647;1099;104162;-75
2021/05/01 07:28:38;;;;;;;19.53;9.33;;;;;;;21.85;60.40;100417.13;125663;1099;104297;-74
2021/05/01 07:31:09;;;;;;;19.53;8.73;;;;;;;22.03;59.67;100423.14;125649;1099;105490;-74
2021/05/01 07:33:45;;;;;;;23.90;10.63;;;;;;;22.21;59.88;100428.25;125608;1099;104456;-74
2021/05/01 07:36:18;;;;;;;23.53;8.10;;;;;;;22.36;59.53;100429.87;125693;1099;104238;-74
2021/05/01 07:38:47;;;;;;;17.48;8.00;;;;;;;22.58;58.85;100427.77;125642;1099;104511;-74
2021/05/01 07:41:16;;;;;;;16.97;7.20;;;;;;;22.73;59.03;100428.42;125694;1099;104185;-74
2021/05/01 07:43:49;;;;;;;18.85;7.75;;;;;;;22.86;58.35;100426.44;125644;1099;104155;-74
2021/05/01 07:46:22;;;;;;;23.63;9.67;;;;;;;23.07;58.58;100423.41;125642;1099;104168;-74
2021/05/01 07:48:51;;;;;;;21.70;9.98;;;;;;;23.25;58.37;100427.60;125648;1099;104296;-75
2021/05/01 07:51:19;;;;;;;25.00;9.83;;;;;;;23.36;58.06;100432.77;125641;1099;104198;-74
2021/05/01 07:53:47;;;;;;;18.97;8.83;;;;;;;23.48;57.70;100431.64;125641;1098;104159;-75
2021/05/01 07:56:14;;;;;;;18.83;8.43;;;;;;;23.65;57.33;100434.91;125636;1099;104217;-74
2021/05/01 07:58:42;;;;;;;23.30;9.03;;;;;;;23.72;56.89;100435.66;125609;1098;104280;-74
2021/05/01 08:01:10;;;;;;;22.67;9.67;;;;;;;23.85;56.89;100434.52;125571;1099;104165;-74
2021/05/01 08:03:39;;;;;;;17.23;8.47;;;;;;;23.87;56.33;100429.12;125648;1099;104169;-74
2021/05/01 08:06:07;;;;;;;18.03;8.20;;;;;;;23.86;54.92;100424.70;125632;1099;104181;-74
2021/05/01 08:08:35;;;;;;;21.13;8.87;;;;;;;23.77;55.41;100430.20;125654;1099;104213;-75
2021/05/01 08:11:03;;;;;;;18.50;8.40;;;;;;;23.79;55.97;100431.05;125618;1099;105618;-74
2021/05/01 08:13:30;;;;;;;19.90;9.13;;;;;;;23.90;55.62;100429.06;125657;1099;104626;-75
2021/05/01 08:15:58;;;;;;;16.17;7.17;;;;;;;24.13;55.57;100422.34;125627;1099;104181;-75
2021/05/01 08:18:26;;;;;;;15.83;7.43;;;;;;;24.40;55.58;100424.42;125660;1099;104178;-75
2021/05/01 08:20:54;;;;;;;17.73;7.57;;;;;;;24.75;55.14;100424.55;125641;1099;104195;-75
2021/05/01 08:23:22;;;;;;;15.70;6.53;;;;;;;25.10;54.74;100415.63;125632;1098;104479;-75
2021/05/01 08:25:50;;;;;;;14.57;6.30;;;;;;;25.35;54.80;100409.61;125682;1099;104214;-74
2021/05/01 08:28:18;;;;;;;15.47;6.10;;;;;;;25.44;54.65;100403.98;125709;1099;104236;-75
2021/05/01 08:30:46;;;;;;;8.93;4.70;;;;;;;25.46;53.78;100406.63;125647;1099;104165;-76
2021/05/01 08:33:13;;;;;;;9.60;4.60;;;;;;;25.34;53.50;100407.87;125604;1099;104825;-74
2021/05/01 08:35:43;;;;;;;7.63;4.10;;;;;;;25.35;52.53;100404.23;125522;1099;104350;-75
2021/05/01 08:38:11;;;;;;;11.63;4.30;;;;;;;25.43;52.28;100401.34;125618;1099;104185;-75
2021/05/01 08:40:40;;;;;;;7.27;4.07;;;;;;;25.58;52.39;100402.73;125589;1099;104284;-75
2021/05/01 08:43:08;;;;;;;11.67;4.57;;;;;;;25.62;51.52;100404.42;125622;1099;104251;-75
2021/05/01 08:45:36;;;;;;;7.77;4.37;;;;;;;25.51;51.13;100399.35;125668;1099;104366;-75
2021/05/01 08:48:04;;;;;;;10.37;4.80;;;;;;;25.66;51.08;100400.70;125646;1099;105546;-75
2021/05/01 08:50:39;;;;;;;10.10;4.80;;;;;;;25.78;51.52;100399.48;125690;1099;104294;-76
2021/05/01 08:53:07;;;;;;;11.83;5.27;;;;;;;25.93;51.05;100401.73;125595;1099;104178;-75
2021/05/01 08:55:38;;;;;;;9.10;4.93;;;;;;;26.01;50.45;100398.85;125624;1099;104213;-75
2021/05/01 08:58:08;;;;;;;14.00;5.60;;;;;;;25.95;50.22;100396.31;125666;1099;104267;-75
2021/05/01 09:00:38;;;;;;;8.30;4.53;;;;;;;25.94;50.60;100390.03;125661;1099;104347;-76
2021/05/01 09:03:08;;;;;;;10.20;4.50;;;;;;;25.98;50.13;100388.19;125622;1099;104172;-75
2021/05/01 09:05:39;;;;;;;9.63;4.70;;;;;;;26.11;50.27;100370.73;125685;1098;105083;-74
2021/05/01 09:08:09;;;;;;;7.87;4.30;;;;;;;26.32;49.48;100377.27;125692;1099;104165;-74
2021/05/01 09:10:39;;;;;;;8.97;4.03;;;;;;;26.49;48.98;100376.73;125632;1099;104204;-74
2021/05/01 09:13:20;;;;;;;7.77;4.20;;;;;;;26.70;49.13;100377.86;125618;1099;104329;-75
2021/05/01 09:15:58;;;;;;;10.20;4.10;;;;;;;26.81;48.86;100373.95;125648;1099;104182;-74
2021/05/01 09:18:27;;;;;;;5.87;3.83;;;;;;;26.78;47.61;100371.36;125574;1098;104293;-75
2021/05/01 09:21:11;;;;;;;6.00;3.23;;;;;;;26.81;47.22;100369.43;125662;1098;104143;-75
2021/05/01 09:23:39;;;;;;;5.83;3.12;;;;;;;27.06;46.49;100371.28;125614;1099;104224;-75
2021/05/01 09:26:08;;;;;;;6.13;3.07;;;;;;;27.30;47.19;100371.34;125599;1099;104159;-75
2021/05/01 09:28:42;;;;;;;7.67;3.30;;;;;;;27.37;46.29;100363.02;125598;1099;104169;-76
2021/05/01 09:31:11;;;;;;;;;;;;;;;27.34;45.33;100364.96;125689;1099;104169;-76
2021/05/01 09:33:40;;;;;;;11.73;3.40;;;;;;;27.40;45.79;100353.97;125629;1099;104306;-76
2021/05/01 09:36:11;;;;;;;7.13;3.27;;;;;;;27.49;46.40;100361.71;125629;1098;104166;-75
2021/05/01 09:38:42;;;;;;;8.43;3.33;;;;;;;27.62;45.03;100354.91;125688;1099;104325;-76
2021/05/01 09:41:14;;;;;;;5.87;3.23;;;;;;;27.78;45.18;100359.73;125648;1099;104168;-75
2021/05/01 09:43:57;;;;;;;6.87;3.13;;;;;;;27.94;45.38;100357.31;125660;1099;104169;-75
2021/05/01 09:46:26;;;;;;;5.73;3.30;;;;;;;28.25;44.94;100350.75;125636;1099;104245;-75
2021/05/01 09:49:07;;;;;;;5.43;3.73;;;;;;;28.31;44.53;100347.80;125608;1099;104284;-75
2021/05/01 09:51:54;;;;;;;6.53;4.00;;;;;;;28.07;43.81;100342.45;125619;1099;104175;-75
2021/05/01 09:54:28;;;;;;;6.03;3.70;;;;;;;28.07;44.06;100350.55;125630;1099;104278;-75
2021/05/01 09:57:01;;;;;;;6.33;3.47;;;;;;;28.13;43.78;100342.22;125670;1099;104348;-75
2021/05/01 09:59:41;;;;;;;9.53;3.97;;;;;;;28.27;43.14;100348.89;125619;1100;104176;-75
2021/05/01 10:02:11;;;;;;;7.80;3.65;;;;;;;28.29;43.25;100342.47;125666;1099;104197;-75
2021/05/01 10:04:40;;;;;;;4.27;3.13;;;;;;;28.28;42.96;100335.34;125625;1099;104399;-75
2021/05/01 10:07:11;;;;;;;6.43;3.40;;;;;;;28.17;42.48;100331.30;125609;1099;104204;-75
2021/05/01 10:09:41;;;;;;;5.60;3.30;;;;;;;28.11;41.57;100327.02;125531;1099;104224;-75
2021/05/01 10:12:11;;;;;;;7.10;3.53;;;;;;;28.05;41.99;100320.08;125641;1099;104162;-75
2021/05/01 10:14:42;;;;;;;10.57;3.60;;;;;;;28.04;41.85;100309.34;125636;1099;104207;-75
2021/05/01 10:17:15;;;;;;;7.37;3.30;;;;;;;28.00;41.82;100302.31;125633;1099;105139;-75
2021/05/01 10:19:50;;;;;;;9.18;3.67;;;;;;;27.99;41.73;100309.53;125671;1099;104172;-76
2021/05/01 10:22:31;;;;;;;5.67;3.27;;;;;;;28.06;41.52;100310.16;125643;1099;104089;-74
2021/05/01 10:25:01;;;;;;;4.57;3.00;;;;;;;28.09;40.75;100301.94;125609;1099;104160;-75
2021/05/01 10:27:42;;;;;;;6.23;3.53;;;;;;;28.08;41.19;100300.17;125612;1099;104166;-75
2021/05/01 10:30:16;;;;;;;9.80;2.80;;;;;;;28.08;40.88;100305.56;125523;1099;104226;-74
2021/05/01 10:32:51;;;;;;;8.63;3.17;;;;;;;28.13;40.52;100308.98;125641;1099;104300;-77
2021/05/01 10:35:20;;;;;;;6.57;2.63;;;;;;;28.10;40.51;100309.97;125590;1099;104644;-76
2021/05/01 10:37:55;;;;;;;5.60;2.77;;;;;;;28.07;39.98;100310.09;125615;1099;104184;-75
2021/05/01 10:40:24;;;;;;;6.40;3.10;;;;;;;27.97;39.76;100314.98;125590;1099;104209;-76
2021/05/01 10:43:16;;;;;;;2.67;2.43;;;;;;;27.87;39.38;100313.55;125638;1099;104350;-75
2021/05/01 10:45:49;;;;;;;4.95;2.80;;;;;;;27.83;39.22;100324.51;125623;1099;104165;-76
2021/05/01 10:48:18;;;;;;;3.55;2.72;;;;;;;27.87;39.16;100318.06;125651;1099;104274;-75
2021/05/01 10:50:57;;;;;;;4.33;2.57;;;;;;;27.92;39.23;100316.06;125689;1099;104192;-75
2021/05/01 10:53:25;;;;;;;8.13;2.90;;;;;;;27.97;39.34;100314.98;125544;1099;104213;-76
2021/05/01 10:55:55;;;;;;;5.67;2.90;;;;;;;27.98;38.70;100313.16;125552;1099;104246;-76
2021/05/01 10:58:35;;;;;;;8.57;3.00;;;;;;;28.01;38.87;100312.16;125668;1099;104168;-76
2021/05/01 11:01:05;;;;;;;4.55;2.70;;;;;;;28.12;38.44;100304.52;125597;1100;104169;-76
2021/05/01 11:03:43;;;;;;;12.00;3.47;;;;;;;28.07;38.54;100302.00;125617;1099;104194;-75
2021/05/01 11:06:19;;;;;;;5.10;2.80;;;;;;;28.02;38.28;100303.11;125576;1099;119996;-76
2021/05/01 11:08:56;;;;;;;4.40;3.00;;;;;;;28.00;38.17;100310.40;125645;1099;104220;-76
2021/05/01 11:11:29;;;;;;;3.80;2.80;;;;;;;27.94;37.85;100306.98;125651;1099;104168;-76